sensor_id;sensor_type;location;lat;lon;timestamp;P1;durP1;ratioP1;P2;durP2;ratioP2
52982;SDS011;48698;45.736;13.926;2023-07-30T00:01:49;8.38;;;5.10;;
52982;SDS011;48698;45.736;13.926;2023-07-30T00:06:52;8.20;;;5.70;;
52982;SDS011;48698;45.736;13.926;2023-07-30T00:11:55;5.65;;;5.05;;
52982;SDS011;48698;45.736;13.926;2023-07-30T00:16:59;13.00;;;4.83;;
52982;SDS011;48698;45.736;13.926;2023-07-30T00:22:02;7.85;;;5.00;;
52982;SDS011;48698;45.736;13.926;2023-07-30T00:27:06;8.15;;;5.13;;
52982;SDS011;48698;45.736;13.926;2023-07-30T00:32:10;8.07;;;5.15;;
52982;SDS011;48698;45.736;13.926;2023-07-30T00:37:14;5.85;;;5.10;;
52982;SDS011;48698;45.736;13.926;2023-07-30T00:42:17;9.38;;;5.40;;
52982;SDS011;48698;45.736;13.926;2023-07-30T00:47:25;6.10;;;4.93;;
52982;SDS011;48698;45.736;13.926;2023-07-30T00:52:29;6.28;;;5.47;;
52982;SDS011;48698;45.736;13.926;2023-07-30T00:57:33;12.48;;;5.25;;
52982;SDS011;48698;45.736;13.926;2023-07-30T01:02:40;7.00;;;5.40;;
52982;SDS011;48698;45.736;13.926;2023-07-30T01:07:43;8.02;;;5.03;;
52982;SDS011;48698;45.736;13.926;2023-07-30T01:12:56;7.23;;;5.40;;
52982;SDS011;48698;45.736;13.926;2023-07-30T01:18:03;7.70;;;5.43;;
52982;SDS011;48698;45.736;13.926;2023-07-30T01:23:06;6.90;;;5.00;;
52982;SDS011;48698;45.736;13.926;2023-07-30T01:28:12;6.57;;;5.13;;
52982;SDS011;48698;45.736;13.926;2023-07-30T01:33:20;6.88;;;5.40;;
52982;SDS011;48698;45.736;13.926;2023-07-30T01:38:25;8.43;;;5.80;;
52982;SDS011;48698;45.736;13.926;2023-07-30T01:43:29;6.90;;;5.50;;
52982;SDS011;48698;45.736;13.926;2023-07-30T01:48:33;6.78;;;5.75;;
52982;SDS011;48698;45.736;13.926;2023-07-30T01:53:36;6.55;;;5.40;;
52982;SDS011;48698;45.736;13.926;2023-07-30T01:58:40;6.13;;;5.23;;
52982;SDS011;48698;45.736;13.926;2023-07-30T02:03:43;12.60;;;5.93;;
52982;SDS011;48698;45.736;13.926;2023-07-30T02:08:46;9.70;;;5.47;;
52982;SDS011;48698;45.736;13.926;2023-07-30T02:13:51;8.43;;;5.70;;
52982;SDS011;48698;45.736;13.926;2023-07-30T02:18:54;7.05;;;5.90;;
52982;SDS011;48698;45.736;13.926;2023-07-30T02:23:58;9.93;;;5.95;;
52982;SDS011;48698;45.736;13.926;2023-07-30T02:29:03;9.90;;;6.18;;
52982;SDS011;48698;45.736;13.926;2023-07-30T02:34:06;6.40;;;5.70;;
52982;SDS011;48698;45.736;13.926;2023-07-30T02:39:11;11.07;;;5.13;;
52982;SDS011;48698;45.736;13.926;2023-07-30T02:44:14;9.77;;;5.87;;
52982;SDS011;48698;45.736;13.926;2023-07-30T02:49:18;8.20;;;6.30;;
52982;SDS011;48698;45.736;13.926;2023-07-30T02:54:21;7.20;;;6.10;;
52982;SDS011;48698;45.736;13.926;2023-07-30T02:59:25;9.40;;;6.72;;
52982;SDS011;48698;45.736;13.926;2023-07-30T03:04:28;9.68;;;4.03;;
52982;SDS011;48698;45.736;13.926;2023-07-30T03:09:31;8.97;;;4.00;;
52982;SDS011;48698;45.736;13.926;2023-07-30T03:14:35;16.05;;;4.00;;
52982;SDS011;48698;45.736;13.926;2023-07-30T03:24:45;1.52;;;0.70;;
52982;SDS011;48698;45.736;13.926;2023-07-30T03:29:49;0.45;;;0.43;;
52982;SDS011;48698;45.736;13.926;2023-07-30T03:34:52;0.93;;;0.70;;
52982;SDS011;48698;45.736;13.926;2023-07-30T03:39:56;0.93;;;0.90;;
52982;SDS011;48698;45.736;13.926;2023-07-30T03:44:59;1.65;;;1.10;;
52982;SDS011;48698;45.736;13.926;2023-07-30T03:50:03;0.65;;;0.57;;
52982;SDS011;48698;45.736;13.926;2023-07-30T03:55:07;123.60;;;13.93;;
52982;SDS011;48698;45.736;13.926;2023-07-30T04:00:11;1.00;;;0.30;;
52982;SDS011;48698;45.736;13.926;2023-07-30T04:05:15;0.60;;;0.43;;
52982;SDS011;48698;45.736;13.926;2023-07-30T04:10:18;0.93;;;0.40;;
52982;SDS011;48698;45.736;13.926;2023-07-30T04:15:21;0.45;;;0.20;;
52982;SDS011;48698;45.736;13.926;2023-07-30T04:20:25;0.28;;;0.22;;
52982;SDS011;48698;45.736;13.926;2023-07-30T04:25:28;0.20;;;0.20;;
52982;SDS011;48698;45.736;13.926;2023-07-30T04:30:32;0.17;;;0.17;;
52982;SDS011;48698;45.736;13.926;2023-07-30T04:35:36;1.42;;;0.38;;
52982;SDS011;48698;45.736;13.926;2023-07-30T04:40:39;0.13;;;0.13;;
52982;SDS011;48698;45.736;13.926;2023-07-30T04:45:43;1.05;;;0.70;;
52982;SDS011;48698;45.736;13.926;2023-07-30T04:50:46;0.30;;;0.30;;
52982;SDS011;48698;45.736;13.926;2023-07-30T04:55:54;0.53;;;0.53;;
52982;SDS011;48698;45.736;13.926;2023-07-30T05:00:58;0.50;;;0.47;;
52982;SDS011;48698;45.736;13.926;2023-07-30T05:06:01;0.75;;;0.40;;
52982;SDS011;48698;45.736;13.926;2023-07-30T05:11:05;1.53;;;0.40;;
52982;SDS011;48698;45.736;13.926;2023-07-30T05:16:08;0.30;;;0.30;;
52982;SDS011;48698;45.736;13.926;2023-07-30T05:21:12;0.30;;;0.30;;
52982;SDS011;48698;45.736;13.926;2023-07-30T05:26:15;0.30;;;0.30;;
52982;SDS011;48698;45.736;13.926;2023-07-30T05:31:19;0.50;;;0.50;;
52982;SDS011;48698;45.736;13.926;2023-07-30T05:36:23;1.95;;;0.60;;
52982;SDS011;48698;45.736;13.926;2023-07-30T05:41:26;1.07;;;0.90;;
52982;SDS011;48698;45.736;13.926;2023-07-30T05:46:30;0.85;;;0.70;;
52982;SDS011;48698;45.736;13.926;2023-07-30T05:51:33;0.60;;;0.60;;
52982;SDS011;48698;45.736;13.926;2023-07-30T05:56:37;0.87;;;0.70;;
52982;SDS011;48698;45.736;13.926;2023-07-30T06:01:40;0.40;;;0.40;;
52982;SDS011;48698;45.736;13.926;2023-07-30T06:06:43;1.30;;;0.97;;
52982;SDS011;48698;45.736;13.926;2023-07-30T06:11:47;0.50;;;0.50;;
52982;SDS011;48698;45.736;13.926;2023-07-30T06:16:51;0.40;;;0.40;;
52982;SDS011;48698;45.736;13.926;2023-07-30T06:26:58;0.40;;;0.40;;
52982;SDS011;48698;45.736;13.926;2023-07-30T06:32:01;0.43;;;0.43;;
52982;SDS011;48698;45.736;13.926;2023-07-30T06:37:05;0.20;;;0.20;;
52982;SDS011;48698;45.736;13.926;2023-07-30T06:42:08;0.50;;;0.50;;
52982;SDS011;48698;45.736;13.926;2023-07-30T06:47:13;0.55;;;0.40;;
52982;SDS011;48698;45.736;13.926;2023-07-30T06:52:16;0.97;;;0.60;;
52982;SDS011;48698;45.736;13.926;2023-07-30T06:57:20;0.60;;;0.60;;
52982;SDS011;48698;45.736;13.926;2023-07-30T07:02:23;0.70;;;0.53;;
52982;SDS011;48698;45.736;13.926;2023-07-30T07:07:27;0.95;;;0.30;;
52982;SDS011;48698;45.736;13.926;2023-07-30T07:12:31;0.30;;;0.30;;
52982;SDS011;48698;45.736;13.926;2023-07-30T07:17:34;0.50;;;0.38;;
52982;SDS011;48698;45.736;13.926;2023-07-30T07:22:38;0.70;;;0.38;;
52982;SDS011;48698;45.736;13.926;2023-07-30T07:27:41;0.40;;;0.35;;
52982;SDS011;48698;45.736;13.926;2023-07-30T07:32:45;0.50;;;0.50;;
52982;SDS011;48698;45.736;13.926;2023-07-30T07:37:53;0.50;;;0.50;;
52982;SDS011;48698;45.736;13.926;2023-07-30T07:42:56;0.35;;;0.35;;
52982;SDS011;48698;45.736;13.926;2023-07-30T07:48:00;0.50;;;0.40;;
52982;SDS011;48698;45.736;13.926;2023-07-30T07:53:03;0.47;;;0.40;;
52982;SDS011;48698;45.736;13.926;2023-07-30T07:58:07;0.52;;;0.30;;
52982;SDS011;48698;45.736;13.926;2023-07-30T08:03:10;1.05;;;0.63;;
52982;SDS011;48698;45.736;13.926;2023-07-30T08:08:14;0.43;;;0.35;;
52982;SDS011;48698;45.736;13.926;2023-07-30T08:13:18;0.50;;;0.50;;
52982;SDS011;48698;45.736;13.926;2023-07-30T08:18:21;1.25;;;0.68;;
52982;SDS011;48698;45.736;13.926;2023-07-30T08:23:25;0.30;;;0.30;;
52982;SDS011;48698;45.736;13.926;2023-07-30T08:28:29;0.60;;;0.60;;
52982;SDS011;48698;45.736;13.926;2023-07-30T08:33:33;4.22;;;1.00;;
52982;SDS011;48698;45.736;13.926;2023-07-30T08:38:36;2.08;;;0.80;;
52982;SDS011;48698;45.736;13.926;2023-07-30T08:48:43;0.97;;;0.80;;
52982;SDS011;48698;45.736;13.926;2023-07-30T08:53:51;1.25;;;0.80;;
52982;SDS011;48698;45.736;13.926;2023-07-30T08:58:55;1.00;;;0.90;;
52982;SDS011;48698;45.736;13.926;2023-07-30T09:04:01;1.10;;;0.90;;
52982;SDS011;48698;45.736;13.926;2023-07-30T09:09:06;0.80;;;0.80;;
52982;SDS011;48698;45.736;13.926;2023-07-30T09:14:12;1.20;;;0.88;;
52982;SDS011;48698;45.736;13.926;2023-07-30T09:19:16;1.00;;;0.95;;
52982;SDS011;48698;45.736;13.926;2023-07-30T11:13:07;0.60;;;0.60;;
52982;SDS011;48698;45.736;13.926;2023-07-30T11:18:12;0.63;;;0.63;;
52982;SDS011;48698;45.736;13.926;2023-07-30T11:23:19;1.05;;;0.82;;
52982;SDS011;48698;45.736;13.926;2023-07-30T11:55:44;0.60;;;0.60;;
52982;SDS011;48698;45.736;13.926;2023-07-30T12:00:48;1.65;;;0.70;;
52982;SDS011;48698;45.736;13.926;2023-07-30T12:05:51;0.50;;;0.50;;
52982;SDS011;48698;45.736;13.926;2023-07-30T12:15:42;2.92;;;0.75;;
52982;SDS011;48698;45.736;13.926;2023-07-30T12:20:47;1.13;;;1.00;;
52982;SDS011;48698;45.736;13.926;2023-07-30T12:25:51;1.10;;;1.00;;
52982;SDS011;48698;45.736;13.926;2023-07-30T12:30:54;1.30;;;0.82;;
52982;SDS011;48698;45.736;13.926;2023-07-30T12:35:58;1.15;;;1.05;;
52982;SDS011;48698;45.736;13.926;2023-07-30T12:41:01;0.90;;;0.90;;
52982;SDS011;48698;45.736;13.926;2023-07-30T12:46:05;2.78;;;0.98;;
52982;SDS011;48698;45.736;13.926;2023-07-30T12:51:10;1.17;;;0.95;;
52982;SDS011;48698;45.736;13.926;2023-07-30T12:56:13;2.00;;;1.00;;
52982;SDS011;48698;45.736;13.926;2023-07-30T13:01:18;2.00;;;0.88;;
52982;SDS011;48698;45.736;13.926;2023-07-30T13:06:21;1.80;;;0.80;;
52982;SDS011;48698;45.736;13.926;2023-07-30T13:11:25;1.35;;;0.90;;
52982;SDS011;48698;45.736;13.926;2023-07-30T13:16:29;2.15;;;0.95;;
52982;SDS011;48698;45.736;13.926;2023-07-30T13:21:34;1.38;;;0.93;;
52982;SDS011;48698;45.736;13.926;2023-07-30T13:26:38;1.80;;;0.90;;
52982;SDS011;48698;45.736;13.926;2023-07-30T13:31:41;2.35;;;1.10;;
52982;SDS011;48698;45.736;13.926;2023-07-30T13:36:45;2.47;;;1.10;;
52982;SDS011;48698;45.736;13.926;2023-07-30T13:41:48;1.13;;;0.95;;
52982;SDS011;48698;45.736;13.926;2023-07-30T13:46:52;2.40;;;1.00;;
52982;SDS011;48698;45.736;13.926;2023-07-30T13:51:57;1.95;;;1.00;;
52982;SDS011;48698;45.736;13.926;2023-07-30T13:57:02;2.05;;;0.80;;
52982;SDS011;48698;45.736;13.926;2023-07-30T14:02:07;2.90;;;1.30;;
52982;SDS011;48698;45.736;13.926;2023-07-30T14:07:09;1.58;;;0.90;;
52982;SDS011;48698;45.736;13.926;2023-07-30T14:12:13;1.92;;;0.90;;
52982;SDS011;48698;45.736;13.926;2023-07-30T14:17:16;1.00;;;0.77;;
52982;SDS011;48698;45.736;13.926;2023-07-30T14:22:19;0.98;;;0.75;;
52982;SDS011;48698;45.736;13.926;2023-07-30T14:27:22;0.85;;;0.70;;
52982;SDS011;48698;45.736;13.926;2023-07-30T14:32:27;1.00;;;0.90;;
52982;SDS011;48698;45.736;13.926;2023-07-30T14:37:31;2.00;;;0.90;;
52982;SDS011;48698;45.736;13.926;2023-07-30T14:42:34;2.28;;;0.90;;
52982;SDS011;48698;45.736;13.926;2023-07-30T14:47:37;0.98;;;0.90;;
52982;SDS011;48698;45.736;13.926;2023-07-30T14:52:41;2.22;;;1.02;;
52982;SDS011;48698;45.736;13.926;2023-07-30T14:57:44;1.15;;;0.80;;
52982;SDS011;48698;45.736;13.926;2023-07-30T15:02:47;0.70;;;0.70;;
52982;SDS011;48698;45.736;13.926;2023-07-30T15:07:50;0.85;;;0.80;;
52982;SDS011;48698;45.736;13.926;2023-07-30T15:12:53;1.05;;;0.93;;
52982;SDS011;48698;45.736;13.926;2023-07-30T15:17:56;2.15;;;1.10;;
52982;SDS011;48698;45.736;13.926;2023-07-30T15:22:59;0.90;;;0.90;;
52982;SDS011;48698;45.736;13.926;2023-07-30T15:28:01;1.25;;;1.00;;
52982;SDS011;48698;45.736;13.926;2023-07-30T15:33:04;1.10;;;1.00;;
52982;SDS011;48698;45.736;13.926;2023-07-30T15:38:10;1.52;;;1.02;;
52982;SDS011;48698;45.736;13.926;2023-07-30T15:43:13;3.10;;;0.90;;
52982;SDS011;48698;45.736;13.926;2023-07-30T15:48:16;1.33;;;0.80;;
52982;SDS011;48698;45.736;13.926;2023-07-30T15:53:19;3.42;;;0.85;;
52982;SDS011;48698;45.736;13.926;2023-07-30T15:58:22;0.85;;;0.70;;
52982;SDS011;48698;45.736;13.926;2023-07-30T16:03:25;3.75;;;0.95;;
52982;SDS011;48698;45.736;13.926;2023-07-30T16:08:27;1.63;;;1.00;;
52982;SDS011;48698;45.736;13.926;2023-07-30T16:13:30;1.10;;;1.00;;
52982;SDS011;48698;45.736;13.926;2023-07-30T16:18:34;2.67;;;1.20;;
52982;SDS011;48698;45.736;13.926;2023-07-30T16:23:36;1.20;;;1.10;;
52982;SDS011;48698;45.736;13.926;2023-07-30T16:28:42;1.75;;;1.10;;
52982;SDS011;48698;45.736;13.926;2023-07-30T16:33:46;2.05;;;1.10;;
52982;SDS011;48698;45.736;13.926;2023-07-30T16:38:48;1.17;;;1.00;;
52982;SDS011;48698;45.736;13.926;2023-07-30T16:43:51;1.77;;;1.08;;
52982;SDS011;48698;45.736;13.926;2023-07-30T16:48:54;2.25;;;1.02;;
52982;SDS011;48698;45.736;13.926;2023-07-30T16:53:57;3.13;;;1.20;;
52982;SDS011;48698;45.736;13.926;2023-07-30T17:04:03;2.40;;;1.10;;
52982;SDS011;48698;45.736;13.926;2023-07-30T17:09:06;2.53;;;0.90;;
52982;SDS011;48698;45.736;13.926;2023-07-30T17:14:09;1.83;;;1.13;;
52982;SDS011;48698;45.736;13.926;2023-07-30T17:19:11;1.40;;;1.30;;
52982;SDS011;48698;45.736;13.926;2023-07-30T17:24:14;3.78;;;1.33;;
52982;SDS011;48698;45.736;13.926;2023-07-30T17:29:17;1.53;;;1.10;;
52982;SDS011;48698;45.736;13.926;2023-07-30T17:34:24;1.95;;;1.00;;
52982;SDS011;48698;45.736;13.926;2023-07-30T17:39:28;0.90;;;0.90;;
52982;SDS011;48698;45.736;13.926;2023-07-30T17:44:32;1.60;;;1.20;;
52982;SDS011;48698;45.736;13.926;2023-07-30T17:54:38;2.08;;;1.20;;
52982;SDS011;48698;45.736;13.926;2023-07-30T18:04:45;3.50;;;1.43;;
52982;SDS011;48698;45.736;13.926;2023-07-30T18:09:49;1.73;;;1.30;;
52982;SDS011;48698;45.736;13.926;2023-07-30T18:14:54;2.67;;;1.77;;
52982;SDS011;48698;45.736;13.926;2023-07-30T18:19:57;3.95;;;1.55;;
52982;SDS011;48698;45.736;13.926;2023-07-30T18:30:05;3.75;;;2.03;;
52982;SDS011;48698;45.736;13.926;2023-07-30T18:35:09;1.50;;;1.40;;
52982;SDS011;48698;45.736;13.926;2023-07-30T18:40:13;3.22;;;1.40;;
52982;SDS011;48698;45.736;13.926;2023-07-30T18:45:17;2.92;;;1.17;;
52982;SDS011;48698;45.736;13.926;2023-07-30T18:50:20;2.30;;;1.52;;
52982;SDS011;48698;45.736;13.926;2023-07-30T18:55:23;3.30;;;1.13;;
52982;SDS011;48698;45.736;13.926;2023-07-30T19:00:27;1.05;;;0.93;;
52982;SDS011;48698;45.736;13.926;2023-07-30T19:05:30;1.48;;;1.30;;
52982;SDS011;48698;45.736;13.926;2023-07-30T19:10:34;3.88;;;0.90;;
52982;SDS011;48698;45.736;13.926;2023-07-30T19:15:37;2.72;;;1.00;;
52982;SDS011;48698;45.736;13.926;2023-07-30T19:20:40;2.67;;;1.08;;
52982;SDS011;48698;45.736;13.926;2023-07-30T19:25:47;1.40;;;1.00;;
52982;SDS011;48698;45.736;13.926;2023-07-30T19:30:51;2.33;;;1.05;;
52982;SDS011;48698;45.736;13.926;2023-07-30T19:35:55;25.88;;;23.65;;
52982;SDS011;48698;45.736;13.926;2023-07-30T19:40:58;35.17;;;22.42;;
52982;SDS011;48698;45.736;13.926;2023-07-30T19:46:10;5.78;;;2.85;;
52982;SDS011;48698;45.736;13.926;2023-07-30T19:51:14;6.22;;;2.20;;
52982;SDS011;48698;45.736;13.926;2023-07-30T19:56:19;3.13;;;1.23;;
52982;SDS011;48698;45.736;13.926;2023-07-30T20:01:22;3.33;;;1.33;;
52982;SDS011;48698;45.736;13.926;2023-07-30T20:06:26;3.72;;;1.23;;
52982;SDS011;48698;45.736;13.926;2023-07-30T20:11:29;1.30;;;1.10;;
52982;SDS011;48698;45.736;13.926;2023-07-30T20:16:33;1.63;;;1.30;;
52982;SDS011;48698;45.736;13.926;2023-07-30T20:21:37;2.90;;;1.20;;
52982;SDS011;48698;45.736;13.926;2023-07-30T20:26:40;3.17;;;1.38;;
52982;SDS011;48698;45.736;13.926;2023-07-30T20:31:43;2.80;;;1.30;;
52982;SDS011;48698;45.736;13.926;2023-07-30T20:36:47;2.13;;;1.30;;
52982;SDS011;48698;45.736;13.926;2023-07-30T20:41:50;2.55;;;1.45;;
52982;SDS011;48698;45.736;13.926;2023-07-30T20:46:55;5.82;;;1.98;;
52982;SDS011;48698;45.736;13.926;2023-07-30T20:51:59;4.32;;;1.45;;
52982;SDS011;48698;45.736;13.926;2023-07-30T20:57:02;3.85;;;1.27;;
52982;SDS011;48698;45.736;13.926;2023-07-30T21:02:06;2.60;;;1.27;;
52982;SDS011;48698;45.736;13.926;2023-07-30T21:12:13;3.13;;;1.55;;
52982;SDS011;48698;45.736;13.926;2023-07-30T21:17:17;1.63;;;1.30;;
52982;SDS011;48698;45.736;13.926;2023-07-30T21:22:22;1.63;;;1.40;;
52982;SDS011;48698;45.736;13.926;2023-07-30T21:27:25;4.57;;;1.90;;
52982;SDS011;48698;45.736;13.926;2023-07-30T21:32:28;4.35;;;1.50;;
52982;SDS011;48698;45.736;13.926;2023-07-30T21:37:33;3.38;;;1.48;;
52982;SDS011;48698;45.736;13.926;2023-07-30T21:42:36;1.67;;;1.30;;
52982;SDS011;48698;45.736;13.926;2023-07-30T21:47:40;1.77;;;1.40;;
52982;SDS011;48698;45.736;13.926;2023-07-30T21:57:47;1.70;;;1.35;;
52982;SDS011;48698;45.736;13.926;2023-07-30T22:07:54;1.73;;;1.53;;
52982;SDS011;48698;45.736;13.926;2023-07-30T22:12:58;3.40;;;1.33;;
52982;SDS011;48698;45.736;13.926;2023-07-30T22:18:02;2.90;;;1.48;;
52982;SDS011;48698;45.736;13.926;2023-07-30T22:23:06;1.65;;;1.55;;
52982;SDS011;48698;45.736;13.926;2023-07-30T22:28:11;2.40;;;1.30;;
52982;SDS011;48698;45.736;13.926;2023-07-30T22:33:15;1.92;;;1.50;;
52982;SDS011;48698;45.736;13.926;2023-07-30T22:38:18;1.70;;;1.60;;
52982;SDS011;48698;45.736;13.926;2023-07-30T22:43:22;1.92;;;1.60;;
52982;SDS011;48698;45.736;13.926;2023-07-30T22:48:25;3.10;;;1.50;;
52982;SDS011;48698;45.736;13.926;2023-07-30T22:53:29;1.85;;;1.40;;
52982;SDS011;48698;45.736;13.926;2023-07-30T22:58:32;1.88;;;1.38;;
52982;SDS011;48698;45.736;13.926;2023-07-30T23:03:37;2.33;;;1.40;;
52982;SDS011;48698;45.736;13.926;2023-07-30T23:08:41;2.95;;;1.48;;
52982;SDS011;48698;45.736;13.926;2023-07-30T23:13:45;2.42;;;1.50;;
52982;SDS011;48698;45.736;13.926;2023-07-30T23:18:49;1.98;;;1.40;;
52982;SDS011;48698;45.736;13.926;2023-07-30T23:23:52;3.67;;;1.40;;
52982;SDS011;48698;45.736;13.926;2023-07-30T23:28:56;3.45;;;1.83;;
52982;SDS011;48698;45.736;13.926;2023-07-30T23:34:00;4.30;;;1.40;;
52982;SDS011;48698;45.736;13.926;2023-07-30T23:39:03;5.05;;;1.58;;
52982;SDS011;48698;45.736;13.926;2023-07-30T23:44:07;2.85;;;1.65;;
52982;SDS011;48698;45.736;13.926;2023-07-30T23:49:10;4.10;;;1.40;;
52982;SDS011;48698;45.736;13.926;2023-07-30T23:54:14;2.05;;;1.60;;
52982;SDS011;48698;45.736;13.926;2023-07-30T23:59:17;2.10;;;1.40;;
